sensor_id;sensor_type;location;lat;lon;timestamp;P1;durP1;ratioP1;P2;durP2;ratioP2
20159;SDS011;50187;50.492;12.134;2023-08-24T00:01:52;5.33;;;3.07;;
20159;SDS011;50187;50.492;12.134;2023-08-24T00:04:18;3.10;;;2.90;;
20159;SDS011;50187;50.492;12.134;2023-08-24T00:06:45;3.50;;;3.30;;
20159;SDS011;50187;50.492;12.134;2023-08-24T00:09:11;6.17;;;3.07;;
20159;SDS011;50187;50.492;12.134;2023-08-24T00:11:38;2.80;;;2.70;;
20159;SDS011;50187;50.492;12.134;2023-08-24T00:14:05;4.90;;;3.10;;
20159;SDS011;50187;50.492;12.134;2023-08-24T00:16:31;2.90;;;2.80;;
20159;SDS011;50187;50.492;12.134;2023-08-24T00:18:58;3.27;;;3.07;;
20159;SDS011;50187;50.492;12.134;2023-08-24T00:21:25;3.93;;;3.20;;
20159;SDS011;50187;50.492;12.134;2023-08-24T00:23:51;3.00;;;2.80;;
20159;SDS011;50187;50.492;12.134;2023-08-24T00:26:19;2.63;;;2.53;;
20159;SDS011;50187;50.492;12.134;2023-08-24T00:28:46;3.40;;;3.10;;
20159;SDS011;50187;50.492;12.134;2023-08-24T00:31:14;3.20;;;2.90;;
20159;SDS011;50187;50.492;12.134;2023-08-24T00:33:42;3.53;;;3.23;;
20159;SDS011;50187;50.492;12.134;2023-08-24T00:36:09;3.47;;;3.27;;
20159;SDS011;50187;50.492;12.134;2023-08-24T00:38:35;2.93;;;2.73;;
20159;SDS011;50187;50.492;12.134;2023-08-24T00:41:03;3.17;;;3.00;;
20159;SDS011;50187;50.492;12.134;2023-08-24T00:43:30;2.77;;;2.67;;
20159;SDS011;50187;50.492;12.134;2023-08-24T00:45:57;3.20;;;2.67;;
20159;SDS011;50187;50.492;12.134;2023-08-24T00:48:26;3.93;;;3.07;;
20159;SDS011;50187;50.492;12.134;2023-08-24T00:50:55;3.37;;;3.00;;
20159;SDS011;50187;50.492;12.134;2023-08-24T00:53:25;3.50;;;3.17;;
20159;SDS011;50187;50.492;12.134;2023-08-24T00:55:53;2.87;;;2.73;;
20159;SDS011;50187;50.492;12.134;2023-08-24T00:58:20;3.23;;;3.03;;
20159;SDS011;50187;50.492;12.134;2023-08-24T01:00:52;3.03;;;2.93;;
20159;SDS011;50187;50.492;12.134;2023-08-24T01:03:22;3.13;;;2.93;;
20159;SDS011;50187;50.492;12.134;2023-08-24T01:05:50;3.00;;;2.80;;
20159;SDS011;50187;50.492;12.134;2023-08-24T01:08:17;3.53;;;2.87;;
20159;SDS011;50187;50.492;12.134;2023-08-24T01:10:50;4.13;;;2.90;;
20159;SDS011;50187;50.492;12.134;2023-08-24T01:13:21;2.97;;;2.77;;
20159;SDS011;50187;50.492;12.134;2023-08-24T01:16:08;2.93;;;2.73;;
20159;SDS011;50187;50.492;12.134;2023-08-24T01:18:46;3.00;;;2.80;;
20159;SDS011;50187;50.492;12.134;2023-08-24T01:21:16;3.37;;;3.17;;
20159;SDS011;50187;50.492;12.134;2023-08-24T01:23:45;2.73;;;2.63;;
20159;SDS011;50187;50.492;12.134;2023-08-24T01:26:20;4.87;;;3.50;;
20159;SDS011;50187;50.492;12.134;2023-08-24T01:28:47;2.70;;;2.60;;
20159;SDS011;50187;50.492;12.134;2023-08-24T01:31:17;3.17;;;2.97;;
20159;SDS011;50187;50.492;12.134;2023-08-24T01:33:44;2.80;;;2.63;;
20159;SDS011;50187;50.492;12.134;2023-08-24T01:36:12;3.33;;;3.03;;
20159;SDS011;50187;50.492;12.134;2023-08-24T01:38:40;3.00;;;2.80;;
20159;SDS011;50187;50.492;12.134;2023-08-24T01:41:19;3.27;;;3.07;;
20159;SDS011;50187;50.492;12.134;2023-08-24T01:43:52;5.60;;;3.10;;
20159;SDS011;50187;50.492;12.134;2023-08-24T01:46:21;3.00;;;2.90;;
20159;SDS011;50187;50.492;12.134;2023-08-24T01:48:51;3.50;;;3.20;;
20159;SDS011;50187;50.492;12.134;2023-08-24T01:51:19;2.97;;;2.77;;
20159;SDS011;50187;50.492;12.134;2023-08-24T01:53:46;3.27;;;3.07;;
20159;SDS011;50187;50.492;12.134;2023-08-24T01:56:15;3.10;;;2.90;;
20159;SDS011;50187;50.492;12.134;2023-08-24T01:58:42;3.27;;;3.07;;
20159;SDS011;50187;50.492;12.134;2023-08-24T02:01:09;4.83;;;2.90;;
20159;SDS011;50187;50.492;12.134;2023-08-24T02:03:37;4.13;;;2.60;;
20159;SDS011;50187;50.492;12.134;2023-08-24T02:06:06;3.47;;;3.17;;
20159;SDS011;50187;50.492;12.134;2023-08-24T02:08:33;3.10;;;2.90;;
20159;SDS011;50187;50.492;12.134;2023-08-24T02:11:02;2.77;;;2.67;;
20159;SDS011;50187;50.492;12.134;2023-08-24T02:13:31;3.20;;;3.00;;
20159;SDS011;50187;50.492;12.134;2023-08-24T02:16:04;3.27;;;3.07;;
20159;SDS011;50187;50.492;12.134;2023-08-24T02:18:34;3.10;;;2.80;;
20159;SDS011;50187;50.492;12.134;2023-08-24T02:21:09;3.23;;;2.93;;
20159;SDS011;50187;50.492;12.134;2023-08-24T02:23:38;2.90;;;2.70;;
20159;SDS011;50187;50.492;12.134;2023-08-24T02:26:05;3.27;;;2.97;;
20159;SDS011;50187;50.492;12.134;2023-08-24T02:28:32;3.10;;;2.90;;
20159;SDS011;50187;50.492;12.134;2023-08-24T02:31:00;3.10;;;2.90;;
20159;SDS011;50187;50.492;12.134;2023-08-24T02:33:27;3.43;;;3.13;;
20159;SDS011;50187;50.492;12.134;2023-08-24T02:35:54;3.80;;;3.10;;
20159;SDS011;50187;50.492;12.134;2023-08-24T02:38:21;2.90;;;2.70;;
20159;SDS011;50187;50.492;12.134;2023-08-24T02:40:47;3.20;;;2.97;;
20159;SDS011;50187;50.492;12.134;2023-08-24T02:43:14;3.27;;;2.97;;
20159;SDS011;50187;50.492;12.134;2023-08-24T02:45:41;2.73;;;2.60;;
20159;SDS011;50187;50.492;12.134;2023-08-24T02:48:07;3.30;;;3.00;;
20159;SDS011;50187;50.492;12.134;2023-08-24T02:50:34;3.30;;;3.00;;
20159;SDS011;50187;50.492;12.134;2023-08-24T02:53:00;3.20;;;3.00;;
20159;SDS011;50187;50.492;12.134;2023-08-24T02:55:28;3.37;;;3.17;;
20159;SDS011;50187;50.492;12.134;2023-08-24T02:57:57;2.80;;;2.60;;
20159;SDS011;50187;50.492;12.134;2023-08-24T03:00:24;3.30;;;3.10;;
20159;SDS011;50187;50.492;12.134;2023-08-24T03:02:50;3.10;;;2.90;;
20159;SDS011;50187;50.492;12.134;2023-08-24T03:05:17;4.90;;;3.07;;
20159;SDS011;50187;50.492;12.134;2023-08-24T03:07:44;2.97;;;2.77;;
20159;SDS011;50187;50.492;12.134;2023-08-24T03:10:12;2.97;;;2.63;;
20159;SDS011;50187;50.492;12.134;2023-08-24T03:12:38;2.80;;;2.70;;
20159;SDS011;50187;50.492;12.134;2023-08-24T03:15:05;2.77;;;2.57;;
20159;SDS011;50187;50.492;12.134;2023-08-24T03:17:33;4.37;;;2.70;;
20159;SDS011;50187;50.492;12.134;2023-08-24T03:20:03;3.30;;;3.00;;
20159;SDS011;50187;50.492;12.134;2023-08-24T03:22:30;2.90;;;2.70;;
20159;SDS011;50187;50.492;12.134;2023-08-24T03:24:56;2.53;;;2.40;;
20159;SDS011;50187;50.492;12.134;2023-08-24T03:27:23;3.13;;;2.83;;
20159;SDS011;50187;50.492;12.134;2023-08-24T03:29:51;3.00;;;2.80;;
20159;SDS011;50187;50.492;12.134;2023-08-24T03:32:18;3.23;;;3.03;;
20159;SDS011;50187;50.492;12.134;2023-08-24T03:34:45;3.20;;;2.97;;
20159;SDS011;50187;50.492;12.134;2023-08-24T03:37:12;3.20;;;3.00;;
20159;SDS011;50187;50.492;12.134;2023-08-24T03:39:40;2.90;;;2.70;;
20159;SDS011;50187;50.492;12.134;2023-08-24T03:42:07;3.03;;;2.83;;
20159;SDS011;50187;50.492;12.134;2023-08-24T03:44:33;3.20;;;3.00;;
20159;SDS011;50187;50.492;12.134;2023-08-24T03:47:00;2.93;;;2.70;;
20159;SDS011;50187;50.492;12.134;2023-08-24T03:49:27;2.93;;;2.73;;
20159;SDS011;50187;50.492;12.134;2023-08-24T03:51:53;3.10;;;2.90;;
20159;SDS011;50187;50.492;12.134;2023-08-24T03:54:20;2.60;;;2.50;;
20159;SDS011;50187;50.492;12.134;2023-08-24T03:56:47;3.30;;;3.00;;
20159;SDS011;50187;50.492;12.134;2023-08-24T03:59:14;3.40;;;3.10;;
20159;SDS011;50187;50.492;12.134;2023-08-24T04:01:40;5.40;;;2.97;;
20159;SDS011;50187;50.492;12.134;2023-08-24T04:04:07;2.87;;;2.73;;
20159;SDS011;50187;50.492;12.134;2023-08-24T04:06:33;3.27;;;3.07;;
20159;SDS011;50187;50.492;12.134;2023-08-24T04:09:01;2.90;;;2.70;;
20159;SDS011;50187;50.492;12.134;2023-08-24T04:11:28;3.00;;;2.80;;
20159;SDS011;50187;50.492;12.134;2023-08-24T04:13:54;3.00;;;2.80;;
20159;SDS011;50187;50.492;12.134;2023-08-24T04:16:21;3.00;;;2.80;;
20159;SDS011;50187;50.492;12.134;2023-08-24T04:18:47;3.00;;;2.80;;
20159;SDS011;50187;50.492;12.134;2023-08-24T04:21:14;3.50;;;3.17;;
20159;SDS011;50187;50.492;12.134;2023-08-24T04:23:40;3.00;;;2.80;;
20159;SDS011;50187;50.492;12.134;2023-08-24T04:26:11;3.03;;;2.57;;
20159;SDS011;50187;50.492;12.134;2023-08-24T04:28:38;4.00;;;3.00;;
20159;SDS011;50187;50.492;12.134;2023-08-24T04:31:05;3.47;;;2.90;;
20159;SDS011;50187;50.492;12.134;2023-08-24T04:33:32;2.60;;;2.40;;
20159;SDS011;50187;50.492;12.134;2023-08-24T04:35:58;2.93;;;2.77;;
20159;SDS011;50187;50.492;12.134;2023-08-24T04:38:25;3.23;;;3.03;;
20159;SDS011;50187;50.492;12.134;2023-08-24T04:40:53;3.20;;;2.63;;
20159;SDS011;50187;50.492;12.134;2023-08-24T04:43:22;3.27;;;2.87;;
20159;SDS011;50187;50.492;12.134;2023-08-24T04:45:50;3.20;;;3.00;;
20159;SDS011;50187;50.492;12.134;2023-08-24T04:48:22;2.97;;;2.67;;
20159;SDS011;50187;50.492;12.134;2023-08-24T04:50:49;3.20;;;2.90;;
20159;SDS011;50187;50.492;12.134;2023-08-24T04:53:17;5.30;;;3.07;;
20159;SDS011;50187;50.492;12.134;2023-08-24T04:55:44;3.67;;;3.07;;
20159;SDS011;50187;50.492;12.134;2023-08-24T04:58:11;2.83;;;2.60;;
20159;SDS011;50187;50.492;12.134;2023-08-24T05:00:39;3.10;;;2.90;;
20159;SDS011;50187;50.492;12.134;2023-08-24T05:03:06;3.20;;;2.90;;
20159;SDS011;50187;50.492;12.134;2023-08-24T05:05:34;2.90;;;2.70;;
20159;SDS011;50187;50.492;12.134;2023-08-24T05:08:02;3.77;;;2.90;;
20159;SDS011;50187;50.492;12.134;2023-08-24T05:10:32;3.07;;;2.87;;
20159;SDS011;50187;50.492;12.134;2023-08-24T05:12:59;2.97;;;2.77;;
20159;SDS011;50187;50.492;12.134;2023-08-24T05:15:26;3.03;;;2.90;;
20159;SDS011;50187;50.492;12.134;2023-08-24T05:17:53;3.17;;;2.80;;
20159;SDS011;50187;50.492;12.134;2023-08-24T05:20:22;3.10;;;2.90;;
20159;SDS011;50187;50.492;12.134;2023-08-24T05:22:49;3.20;;;3.00;;
20159;SDS011;50187;50.492;12.134;2023-08-24T05:25:15;2.87;;;2.63;;
20159;SDS011;50187;50.492;12.134;2023-08-24T05:27:45;3.10;;;2.90;;
20159;SDS011;50187;50.492;12.134;2023-08-24T05:30:11;6.77;;;3.50;;
20159;SDS011;50187;50.492;12.134;2023-08-24T05:32:38;4.43;;;3.63;;
20159;SDS011;50187;50.492;12.134;2023-08-24T05:35:05;6.03;;;3.30;;
20159;SDS011;50187;50.492;12.134;2023-08-24T05:37:33;4.17;;;3.60;;
20159;SDS011;50187;50.492;12.134;2023-08-24T05:40:00;9.97;;;4.13;;
20159;SDS011;50187;50.492;12.134;2023-08-24T05:42:30;8.77;;;4.10;;
20159;SDS011;50187;50.492;12.134;2023-08-24T05:44:57;8.07;;;3.73;;
20159;SDS011;50187;50.492;12.134;2023-08-24T05:47:23;9.37;;;4.40;;
20159;SDS011;50187;50.492;12.134;2023-08-24T05:49:50;6.03;;;3.77;;
20159;SDS011;50187;50.492;12.134;2023-08-24T05:52:16;6.23;;;3.97;;
20159;SDS011;50187;50.492;12.134;2023-08-24T05:54:43;6.40;;;3.77;;
20159;SDS011;50187;50.492;12.134;2023-08-24T05:57:09;6.77;;;3.90;;
20159;SDS011;50187;50.492;12.134;2023-08-24T05:59:36;5.37;;;4.17;;
20159;SDS011;50187;50.492;12.134;2023-08-24T06:02:03;4.00;;;3.70;;
20159;SDS011;50187;50.492;12.134;2023-08-24T06:04:30;7.20;;;3.83;;
20159;SDS011;50187;50.492;12.134;2023-08-24T06:06:57;4.73;;;3.77;;
20159;SDS011;50187;50.492;12.134;2023-08-24T06:09:23;4.07;;;3.67;;
20159;SDS011;50187;50.492;12.134;2023-08-24T06:11:50;6.40;;;4.00;;
20159;SDS011;50187;50.492;12.134;2023-08-24T06:14:17;4.27;;;3.87;;
20159;SDS011;50187;50.492;12.134;2023-08-24T06:16:43;3.93;;;3.63;;
20159;SDS011;50187;50.492;12.134;2023-08-24T06:19:10;6.07;;;4.27;;
20159;SDS011;50187;50.492;12.134;2023-08-24T06:21:37;4.60;;;4.20;;
20159;SDS011;50187;50.492;12.134;2023-08-24T06:24:03;5.87;;;4.27;;
20159;SDS011;50187;50.492;12.134;2023-08-24T06:26:30;5.07;;;4.60;;
20159;SDS011;50187;50.492;12.134;2023-08-24T06:28:56;4.43;;;4.03;;
20159;SDS011;50187;50.492;12.134;2023-08-24T06:31:23;5.60;;;4.70;;
20159;SDS011;50187;50.492;12.134;2023-08-24T06:33:50;8.30;;;3.93;;
20159;SDS011;50187;50.492;12.134;2023-08-24T06:36:16;5.10;;;3.80;;
20159;SDS011;50187;50.492;12.134;2023-08-24T06:38:43;5.23;;;4.17;;
20159;SDS011;50187;50.492;12.134;2023-08-24T06:41:10;7.20;;;4.30;;
20159;SDS011;50187;50.492;12.134;2023-08-24T06:43:38;5.03;;;3.97;;
20159;SDS011;50187;50.492;12.134;2023-08-24T06:46:05;9.00;;;4.33;;
20159;SDS011;50187;50.492;12.134;2023-08-24T06:48:35;6.53;;;4.20;;
20159;SDS011;50187;50.492;12.134;2023-08-24T06:51:03;6.20;;;4.03;;
20159;SDS011;50187;50.492;12.134;2023-08-24T06:53:30;4.80;;;3.67;;
20159;SDS011;50187;50.492;12.134;2023-08-24T06:55:57;3.90;;;3.30;;
20159;SDS011;50187;50.492;12.134;2023-08-24T06:58:24;4.37;;;4.07;;
20159;SDS011;50187;50.492;12.134;2023-08-24T07:00:51;4.40;;;3.90;;
20159;SDS011;50187;50.492;12.134;2023-08-24T07:03:18;4.73;;;4.17;;
20159;SDS011;50187;50.492;12.134;2023-08-24T07:05:45;5.00;;;3.83;;
20159;SDS011;50187;50.492;12.134;2023-08-24T07:08:12;4.23;;;3.87;;
20159;SDS011;50187;50.492;12.134;2023-08-24T07:10:40;3.97;;;3.50;;
20159;SDS011;50187;50.492;12.134;2023-08-24T07:13:07;3.50;;;3.20;;
20159;SDS011;50187;50.492;12.134;2023-08-24T07:15:34;4.43;;;4.03;;
20159;SDS011;50187;50.492;12.134;2023-08-24T07:18:01;8.00;;;3.50;;
20159;SDS011;50187;50.492;12.134;2023-08-24T07:20:29;3.93;;;3.63;;
20159;SDS011;50187;50.492;12.134;2023-08-24T07:22:55;6.03;;;4.17;;
20159;SDS011;50187;50.492;12.134;2023-08-24T07:25:23;4.10;;;3.70;;
20159;SDS011;50187;50.492;12.134;2023-08-24T07:27:50;4.87;;;3.63;;
20159;SDS011;50187;50.492;12.134;2023-08-24T07:30:17;4.00;;;3.60;;
20159;SDS011;50187;50.492;12.134;2023-08-24T07:32:59;4.53;;;3.40;;
20159;SDS011;50187;50.492;12.134;2023-08-24T07:35:25;4.13;;;3.77;;
20159;SDS011;50187;50.492;12.134;2023-08-24T07:37:53;4.67;;;3.60;;
20159;SDS011;50187;50.492;12.134;2023-08-24T07:40:20;4.30;;;3.87;;
20159;SDS011;50187;50.492;12.134;2023-08-24T07:42:47;3.23;;;3.03;;
20159;SDS011;50187;50.492;12.134;2023-08-24T07:45:17;4.07;;;3.60;;
20159;SDS011;50187;50.492;12.134;2023-08-24T07:47:43;4.30;;;3.90;;
20159;SDS011;50187;50.492;12.134;2023-08-24T07:50:10;3.77;;;3.40;;
20159;SDS011;50187;50.492;12.134;2023-08-24T07:52:37;4.47;;;3.43;;
20159;SDS011;50187;50.492;12.134;2023-08-24T07:55:08;5.37;;;3.47;;
20159;SDS011;50187;50.492;12.134;2023-08-24T07:57:35;3.40;;;3.20;;
20159;SDS011;50187;50.492;12.134;2023-08-24T08:00:05;4.80;;;3.23;;
20159;SDS011;50187;50.492;12.134;2023-08-24T08:02:38;3.83;;;3.30;;
20159;SDS011;50187;50.492;12.134;2023-08-24T08:05:05;3.40;;;3.10;;
20159;SDS011;50187;50.492;12.134;2023-08-24T08:07:34;3.60;;;3.30;;
20159;SDS011;50187;50.492;12.134;2023-08-24T08:10:01;4.10;;;3.60;;
20159;SDS011;50187;50.492;12.134;2023-08-24T08:12:27;3.50;;;3.20;;
20159;SDS011;50187;50.492;12.134;2023-08-24T08:14:55;3.50;;;3.30;;
20159;SDS011;50187;50.492;12.134;2023-08-24T08:17:22;4.13;;;3.07;;
20159;SDS011;50187;50.492;12.134;2023-08-24T08:19:53;4.47;;;3.17;;
20159;SDS011;50187;50.492;12.134;2023-08-24T08:22:20;3.07;;;2.80;;
20159;SDS011;50187;50.492;12.134;2023-08-24T08:24:47;4.20;;;3.10;;
20159;SDS011;50187;50.492;12.134;2023-08-24T08:27:14;3.57;;;3.27;;
20159;SDS011;50187;50.492;12.134;2023-08-24T08:29:40;3.57;;;3.37;;
20159;SDS011;50187;50.492;12.134;2023-08-24T08:32:07;3.33;;;2.90;;
20159;SDS011;50187;50.492;12.134;2023-08-24T08:34:34;3.57;;;3.27;;
20159;SDS011;50187;50.492;12.134;2023-08-24T08:37:00;3.43;;;3.13;;
20159;SDS011;50187;50.492;12.134;2023-08-24T08:39:27;3.83;;;3.30;;
20159;SDS011;50187;50.492;12.134;2023-08-24T08:41:53;3.57;;;3.00;;
20159;SDS011;50187;50.492;12.134;2023-08-24T08:44:20;3.53;;;3.23;;
20159;SDS011;50187;50.492;12.134;2023-08-24T08:46:49;3.13;;;2.93;;
20159;SDS011;50187;50.492;12.134;2023-08-24T08:49:16;3.33;;;3.03;;
20159;SDS011;50187;50.492;12.134;2023-08-24T08:51:44;3.37;;;3.13;;
20159;SDS011;50187;50.492;12.134;2023-08-24T08:54:10;2.90;;;2.70;;
20159;SDS011;50187;50.492;12.134;2023-08-24T08:56:38;2.93;;;2.73;;
20159;SDS011;50187;50.492;12.134;2023-08-24T08:59:05;2.80;;;2.60;;
20159;SDS011;50187;50.492;12.134;2023-08-24T09:01:34;3.40;;;3.17;;
20159;SDS011;50187;50.492;12.134;2023-08-24T09:04:02;4.83;;;3.20;;
20159;SDS011;50187;50.492;12.134;2023-08-24T09:06:29;3.20;;;3.00;;
20159;SDS011;50187;50.492;12.134;2023-08-24T09:08:56;3.20;;;2.90;;
20159;SDS011;50187;50.492;12.134;2023-08-24T09:11:23;3.63;;;2.97;;
20159;SDS011;50187;50.492;12.134;2023-08-24T09:13:50;3.70;;;3.40;;
20159;SDS011;50187;50.492;12.134;2023-08-24T09:16:16;3.73;;;3.43;;
20159;SDS011;50187;50.492;12.134;2023-08-24T09:18:44;3.17;;;2.90;;
20159;SDS011;50187;50.492;12.134;2023-08-24T09:21:13;3.50;;;3.20;;
20159;SDS011;50187;50.492;12.134;2023-08-24T09:23:52;2.93;;;2.73;;
20159;SDS011;50187;50.492;12.134;2023-08-24T09:26:30;2.93;;;2.73;;
20159;SDS011;50187;50.492;12.134;2023-08-24T09:28:58;3.63;;;3.33;;
20159;SDS011;50187;50.492;12.134;2023-08-24T09:31:35;3.27;;;3.03;;
20159;SDS011;50187;50.492;12.134;2023-08-24T09:34:03;3.47;;;3.03;;
20159;SDS011;50187;50.492;12.134;2023-08-24T09:36:33;2.87;;;2.67;;
20159;SDS011;50187;50.492;12.134;2023-08-24T09:39:01;4.33;;;3.00;;
20159;SDS011;50187;50.492;12.134;2023-08-24T09:41:38;3.33;;;3.03;;
20159;SDS011;50187;50.492;12.134;2023-08-24T09:44:05;5.67;;;3.17;;
20159;SDS011;50187;50.492;12.134;2023-08-24T09:46:32;5.43;;;3.70;;
20159;SDS011;50187;50.492;12.134;2023-08-24T09:48:59;3.43;;;3.23;;
20159;SDS011;50187;50.492;12.134;2023-08-24T09:51:27;3.93;;;3.60;;
20159;SDS011;50187;50.492;12.134;2023-08-24T09:53:57;3.50;;;3.20;;
20159;SDS011;50187;50.492;12.134;2023-08-24T09:56:28;5.17;;;3.57;;
20159;SDS011;50187;50.492;12.134;2023-08-24T09:58:55;2.87;;;2.67;;
20159;SDS011;50187;50.492;12.134;2023-08-24T10:01:26;5.77;;;3.50;;
20159;SDS011;50187;50.492;12.134;2023-08-24T10:03:53;3.63;;;3.33;;
20159;SDS011;50187;50.492;12.134;2023-08-24T10:06:24;3.53;;;3.23;;
20159;SDS011;50187;50.492;12.134;2023-08-24T10:08:54;3.10;;;2.90;;
20159;SDS011;50187;50.492;12.134;2023-08-24T10:11:30;3.00;;;2.80;;
20159;SDS011;50187;50.492;12.134;2023-08-24T10:17:22;3.50;;;2.47;;
20159;SDS011;50187;50.492;12.134;2023-08-24T10:19:50;4.07;;;3.10;;
20159;SDS011;50187;50.492;12.134;2023-08-24T10:22:19;3.20;;;2.93;;
20159;SDS011;50187;50.492;12.134;2023-08-24T10:24:49;3.13;;;2.93;;
20159;SDS011;50187;50.492;12.134;2023-08-24T10:27:18;3.67;;;3.33;;
20159;SDS011;50187;50.492;12.134;2023-08-24T10:29:45;3.63;;;3.20;;
20159;SDS011;50187;50.492;12.134;2023-08-24T10:32:11;3.43;;;2.90;;
20159;SDS011;50187;50.492;12.134;2023-08-24T10:34:39;3.60;;;3.30;;
20159;SDS011;50187;50.492;12.134;2023-08-24T10:37:08;3.00;;;2.70;;
20159;SDS011;50187;50.492;12.134;2023-08-24T10:39:37;3.07;;;2.87;;
20159;SDS011;50187;50.492;12.134;2023-08-24T10:42:12;2.80;;;2.60;;
20159;SDS011;50187;50.492;12.134;2023-08-24T10:44:43;3.63;;;3.13;;
20159;SDS011;50187;50.492;12.134;2023-08-24T10:47:19;3.30;;;3.07;;
20159;SDS011;50187;50.492;12.134;2023-08-24T10:52:23;3.23;;;3.03;;
20159;SDS011;50187;50.492;12.134;2023-08-24T10:54:52;2.97;;;2.77;;
20159;SDS011;50187;50.492;12.134;2023-08-24T10:57:20;3.40;;;3.20;;
20159;SDS011;50187;50.492;12.134;2023-08-24T11:00:21;3.43;;;3.13;;
20159;SDS011;50187;50.492;12.134;2023-08-24T11:05:30;3.13;;;2.90;;
20159;SDS011;50187;50.492;12.134;2023-08-24T11:08:01;3.07;;;2.87;;
20159;SDS011;50187;50.492;12.134;2023-08-24T11:15:39;3.20;;;3.00;;
20159;SDS011;50187;50.492;12.134;2023-08-24T11:18:50;3.17;;;2.97;;
20159;SDS011;50187;50.492;12.134;2023-08-24T11:21:05;3.37;;;3.03;;
20159;SDS011;50187;50.492;12.134;2023-08-24T11:23:33;2.60;;;2.40;;
20159;SDS011;50187;50.492;12.134;2023-08-24T11:26:00;3.10;;;2.73;;
20159;SDS011;50187;50.492;12.134;2023-08-24T11:28:28;2.93;;;2.73;;
20159;SDS011;50187;50.492;12.134;2023-08-24T11:30:56;3.50;;;3.27;;
20159;SDS011;50187;50.492;12.134;2023-08-24T11:33:31;2.97;;;2.77;;
20159;SDS011;50187;50.492;12.134;2023-08-24T11:36:03;3.30;;;2.83;;
20159;SDS011;50187;50.492;12.134;2023-08-24T11:38:40;2.90;;;2.70;;
20159;SDS011;50187;50.492;12.134;2023-08-24T11:41:17;2.77;;;2.63;;
20159;SDS011;50187;50.492;12.134;2023-08-24T11:43:45;3.23;;;2.90;;
20159;SDS011;50187;50.492;12.134;2023-08-24T11:46:17;3.43;;;2.80;;
20159;SDS011;50187;50.492;12.134;2023-08-24T11:48:45;6.60;;;3.07;;
20159;SDS011;50187;50.492;12.134;2023-08-24T11:51:12;2.60;;;2.50;;
20159;SDS011;50187;50.492;12.134;2023-08-24T11:53:43;3.03;;;2.83;;
20159;SDS011;50187;50.492;12.134;2023-08-24T11:56:14;2.87;;;2.67;;
20159;SDS011;50187;50.492;12.134;2023-08-24T11:58:47;3.70;;;3.37;;
20159;SDS011;50187;50.492;12.134;2023-08-24T12:01:15;2.93;;;2.73;;
20159;SDS011;50187;50.492;12.134;2023-08-24T12:03:42;3.27;;;3.03;;
20159;SDS011;50187;50.492;12.134;2023-08-24T12:06:13;2.70;;;2.53;;
20159;SDS011;50187;50.492;12.134;2023-08-24T12:08:41;3.00;;;2.80;;
20159;SDS011;50187;50.492;12.134;2023-08-24T12:11:15;3.10;;;2.90;;
20159;SDS011;50187;50.492;12.134;2023-08-24T12:13:47;3.40;;;3.20;;
20159;SDS011;50187;50.492;12.134;2023-08-24T12:16:16;2.90;;;2.70;;
20159;SDS011;50187;50.492;12.134;2023-08-24T12:19:02;3.00;;;2.80;;
20159;SDS011;50187;50.492;12.134;2023-08-24T12:21:33;3.20;;;2.90;;
20159;SDS011;50187;50.492;12.134;2023-08-24T12:24:00;2.90;;;2.70;;
20159;SDS011;50187;50.492;12.134;2023-08-24T12:26:35;2.73;;;2.53;;
20159;SDS011;50187;50.492;12.134;2023-08-24T12:29:03;2.73;;;2.53;;
20159;SDS011;50187;50.492;12.134;2023-08-24T12:31:32;2.90;;;2.70;;
20159;SDS011;50187;50.492;12.134;2023-08-24T12:34:06;3.23;;;3.03;;
20159;SDS011;50187;50.492;12.134;2023-08-24T12:36:37;2.90;;;2.70;;
20159;SDS011;50187;50.492;12.134;2023-08-24T12:39:05;2.60;;;2.50;;
20159;SDS011;50187;50.492;12.134;2023-08-24T12:41:33;2.80;;;2.70;;
20159;SDS011;50187;50.492;12.134;2023-08-24T12:44:00;3.13;;;2.70;;
20159;SDS011;50187;50.492;12.134;2023-08-24T12:46:32;2.87;;;2.67;;
20159;SDS011;50187;50.492;12.134;2023-08-24T12:49:02;2.40;;;2.27;;
20159;SDS011;50187;50.492;12.134;2023-08-24T12:51:28;2.40;;;2.30;;
20159;SDS011;50187;50.492;12.134;2023-08-24T12:53:55;2.77;;;2.57;;
20159;SDS011;50187;50.492;12.134;2023-08-24T12:56:22;2.87;;;2.67;;
20159;SDS011;50187;50.492;12.134;2023-08-24T12:58:48;3.23;;;2.47;;
20159;SDS011;50187;50.492;12.134;2023-08-24T13:01:15;2.97;;;2.60;;
20159;SDS011;50187;50.492;12.134;2023-08-24T13:03:41;2.80;;;2.60;;
20159;SDS011;50187;50.492;12.134;2023-08-24T13:06:08;2.97;;;2.77;;
20159;SDS011;50187;50.492;12.134;2023-08-24T13:08:50;3.20;;;3.00;;
20159;SDS011;50187;50.492;12.134;2023-08-24T13:11:18;2.87;;;2.67;;
20159;SDS011;50187;50.492;12.134;2023-08-24T13:13:45;2.47;;;2.33;;
20159;SDS011;50187;50.492;12.134;2023-08-24T13:16:12;2.93;;;2.73;;
20159;SDS011;50187;50.492;12.134;2023-08-24T13:18:39;2.80;;;2.60;;
20159;SDS011;50187;50.492;12.134;2023-08-24T13:21:06;2.60;;;2.40;;
20159;SDS011;50187;50.492;12.134;2023-08-24T13:23:32;2.83;;;2.73;;
20159;SDS011;50187;50.492;12.134;2023-08-24T13:26:00;2.90;;;2.73;;
20159;SDS011;50187;50.492;12.134;2023-08-24T13:28:27;2.83;;;2.63;;
20159;SDS011;50187;50.492;12.134;2023-08-24T13:30:55;2.77;;;2.57;;
20159;SDS011;50187;50.492;12.134;2023-08-24T13:33:22;2.60;;;2.50;;
20159;SDS011;50187;50.492;12.134;2023-08-24T13:35:49;2.60;;;2.40;;
20159;SDS011;50187;50.492;12.134;2023-08-24T13:38:15;3.03;;;2.83;;
20159;SDS011;50187;50.492;12.134;2023-08-24T13:40:42;3.10;;;2.90;;
20159;SDS011;50187;50.492;12.134;2023-08-24T13:43:08;2.50;;;2.40;;
20159;SDS011;50187;50.492;12.134;2023-08-24T13:45:35;2.93;;;2.73;;
20159;SDS011;50187;50.492;12.134;2023-08-24T13:48:01;2.67;;;2.47;;
20159;SDS011;50187;50.492;12.134;2023-08-24T13:50:28;2.60;;;2.47;;
20159;SDS011;50187;50.492;12.134;2023-08-24T13:52:55;2.43;;;2.33;;
20159;SDS011;50187;50.492;12.134;2023-08-24T13:55:22;2.67;;;2.50;;
20159;SDS011;50187;50.492;12.134;2023-08-24T13:57:49;2.77;;;2.57;;
20159;SDS011;50187;50.492;12.134;2023-08-24T14:00:16;2.70;;;2.50;;
20159;SDS011;50187;50.492;12.134;2023-08-24T14:02:43;2.73;;;2.57;;
20159;SDS011;50187;50.492;12.134;2023-08-24T14:05:11;2.47;;;2.30;;
20159;SDS011;50187;50.492;12.134;2023-08-24T14:07:39;2.80;;;2.60;;
20159;SDS011;50187;50.492;12.134;2023-08-24T14:10:05;2.77;;;2.57;;
20159;SDS011;50187;50.492;12.134;2023-08-24T14:12:34;2.57;;;2.47;;
20159;SDS011;50187;50.492;12.134;2023-08-24T14:15:01;2.70;;;2.50;;
20159;SDS011;50187;50.492;12.134;2023-08-24T14:17:27;2.93;;;2.73;;
20159;SDS011;50187;50.492;12.134;2023-08-24T14:19:54;2.83;;;2.70;;
20159;SDS011;50187;50.492;12.134;2023-08-24T14:22:21;2.60;;;2.47;;
20159;SDS011;50187;50.492;12.134;2023-08-24T14:24:48;2.80;;;2.60;;
20159;SDS011;50187;50.492;12.134;2023-08-24T14:27:15;3.53;;;2.90;;
20159;SDS011;50187;50.492;12.134;2023-08-24T14:29:41;3.00;;;2.80;;
20159;SDS011;50187;50.492;12.134;2023-08-24T14:32:08;2.87;;;2.70;;
20159;SDS011;50187;50.492;12.134;2023-08-24T14:34:34;2.90;;;2.70;;
20159;SDS011;50187;50.492;12.134;2023-08-24T14:37:01;2.67;;;2.47;;
20159;SDS011;50187;50.492;12.134;2023-08-24T14:39:28;3.00;;;2.80;;
20159;SDS011;50187;50.492;12.134;2023-08-24T14:41:54;3.03;;;2.80;;
20159;SDS011;50187;50.492;12.134;2023-08-24T14:44:21;2.27;;;2.17;;
20159;SDS011;50187;50.492;12.134;2023-08-24T14:46:48;2.77;;;2.57;;
20159;SDS011;50187;50.492;12.134;2023-08-24T14:49:14;2.57;;;2.37;;
20159;SDS011;50187;50.492;12.134;2023-08-24T14:51:45;3.03;;;2.73;;
20159;SDS011;50187;50.492;12.134;2023-08-24T14:54:12;3.00;;;2.80;;